Time;durP1;ratioP1;P1;durP2;ratioP2;P2;SDS_P1;SDS_P2;PMS_P1;PMS_P2;Temp;Humidity;BMP_temperature;BMP_pressure;BME280_temperature;BME280_humidity;BME280_pressure;Samples;Min_cycle;Max_cycle;Signal;HPM_P1;HPM_P2
2022/01/17 00:02:10;;;;;;;22.17;11.80;;;3.40;99.90;;;;;;4960375;28;20476;-70
2022/01/17 00:04:37;;;;;;;19.40;11.90;;;3.40;99.90;;;;;;4956717;28;20492;-71
2022/01/17 00:07:04;;;;;;;21.17;12.20;;;3.40;99.90;;;;;;4973899;28;20460;-70
2022/01/17 00:09:30;;;;;;;16.40;9.67;;;3.40;99.90;;;;;;4957952;28;20465;-70
2022/01/17 00:11:57;;;;;;;21.80;11.50;;;3.40;99.90;;;;;;4970205;28;20491;-71
2022/01/17 00:14:28;;;;;;;20.80;11.20;;;3.40;99.90;;;;;;4971724;28;20460;-71
2022/01/17 00:17:09;;;;;;;23.20;12.90;;;3.40;99.90;;;;;;4958416;28;20464;-70
2022/01/17 00:19:40;;;;;;;19.93;11.50;;;3.30;99.90;;;;;;4957247;28;20449;-70
2022/01/17 00:22:08;;;;;;;21.77;11.90;;;3.40;99.90;;;;;;4971774;28;20483;-70
2022/01/17 00:24:34;;;;;;;20.30;11.80;;;3.40;99.90;;;;;;4973743;28;20507;-71
2022/01/17 00:27:01;;;;;;;18.50;10.60;;;3.40;99.90;;;;;;4965454;28;20508;-71
2022/01/17 00:29:28;;;;;;;19.90;10.03;;;3.40;99.90;;;;;;4955547;28;20460;-70
2022/01/17 00:31:57;;;;;;;19.17;11.37;;;3.40;99.90;;;;;;4965603;28;20492;-70
2022/01/17 00:34:24;;;;;;;20.40;11.60;;;3.40;99.90;;;;;;4943241;28;20449;-70
2022/01/17 00:36:50;;;;;;;19.67;12.23;;;3.30;99.90;;;;;;4973048;28;20460;-70
2022/01/17 00:39:18;;;;;;;18.13;11.20;;;3.30;99.90;;;;;;4972606;28;20807;-70
2022/01/17 00:41:45;;;;;;;19.00;11.57;;;3.40;99.90;;;;;;4968025;28;20485;-70
2022/01/17 00:44:15;;;;;;;19.43;11.03;;;3.30;99.90;;;;;;4953821;28;20544;-71
2022/01/17 00:46:42;;;;;;;18.17;11.37;;;3.30;99.90;;;;;;4965845;28;20487;-70
2022/01/17 00:49:10;;;;;;;17.90;11.13;;;3.30;99.90;;;;;;4972545;28;20511;-70
2022/01/17 00:51:36;;;;;;;20.33;11.90;;;3.30;99.90;;;;;;4972088;28;20559;-70
2022/01/17 00:54:03;;;;;;;19.63;11.37;;;3.30;99.90;;;;;;4972504;28;20460;-71
2022/01/17 00:56:30;;;;;;;19.27;11.50;;;3.30;99.90;;;;;;4972875;28;20464;-70
2022/01/17 00:58:56;;;;;;;20.87;12.20;;;3.30;99.90;;;;;;4967512;28;20940;-70
2022/01/17 01:01:23;;;;;;;22.67;12.20;;;3.30;99.90;;;;;;4969191;28;20473;-70
2022/01/17 01:03:50;;;;;;;20.30;11.30;;;3.30;99.90;;;;;;4953529;28;21012;-70
2022/01/17 01:06:18;;;;;;;20.23;11.67;;;3.30;99.90;;;;;;4970706;28;20475;-70
2022/01/17 01:08:44;;;;;;;32.60;12.80;;;3.30;99.90;;;;;;4962990;28;20449;-70
2022/01/17 01:11:11;;;;;;;20.40;12.00;;;3.30;99.90;;;;;;4953144;28;20570;-70
2022/01/17 01:13:39;;;;;;;25.50;12.53;;;3.30;99.90;;;;;;4953545;28;20456;-70
2022/01/17 01:16:30;;;;;;;23.17;11.67;;;3.30;99.90;;;;;;4969593;28;20448;-70
2022/01/17 01:19:18;;;;;;;24.97;12.30;;;3.40;99.90;;;;;;4972248;28;20456;-70
2022/01/17 01:21:59;;;;;;;19.20;10.03;;;3.40;99.90;;;;;;4963570;28;20475;-72
2022/01/17 01:29:58;;;;;;;22.80;12.47;;;3.40;99.90;;;;;;4941881;29;20500;-70
2022/01/17 01:32:32;;;;;;;17.73;10.90;;;3.50;99.90;;;;;;4963071;28;20510;-70
2022/01/17 01:35:00;;;;;;;20.53;10.57;;;3.50;99.90;;;;;;4972055;28;20459;-71
2022/01/17 01:37:29;;;;;;;20.00;11.33;;;3.50;99.90;;;;;;4945905;28;20484;-71
2022/01/17 01:39:56;;;;;;;20.53;11.53;;;3.50;99.90;;;;;;4958082;28;20479;-70
2022/01/17 01:42:23;;;;;;;20.63;10.03;;;3.50;99.90;;;;;;4971550;28;21001;-70
2022/01/17 01:44:52;;;;;;;21.00;11.07;;;3.50;99.90;;;;;;4958417;28;20492;-70
2022/01/17 01:47:21;;;;;;;15.20;10.13;;;3.50;99.90;;;;;;4962036;28;20488;-70
2022/01/17 01:49:48;;;;;;;21.03;10.30;;;3.50;99.90;;;;;;4972031;28;20452;-70
2022/01/17 01:52:15;;;;;;;16.30;8.83;;;3.50;99.90;;;;;;4970088;28;20546;-70
2022/01/17 01:54:43;;;;;;;20.10;10.17;;;3.60;99.90;;;;;;4959166;28;20497;-70
2022/01/17 01:57:10;;;;;;;17.00;10.73;;;3.50;99.90;;;;;;4969488;28;20455;-70
2022/01/17 01:59:38;;;;;;;18.80;10.90;;;3.50;99.90;;;;;;4972190;28;20526;-70
2022/01/17 02:02:05;;;;;;;18.37;10.30;;;3.50;99.90;;;;;;4963768;28;20559;-70
2022/01/17 02:04:32;;;;;;;17.50;10.10;;;3.50;99.90;;;;;;4953873;28;21149;-70
2022/01/17 02:06:59;;;;;;;16.47;9.90;;;3.50;99.90;;;;;;4952461;28;20793;-70
2022/01/17 02:09:25;;;;;;;18.00;9.90;;;3.50;99.90;;;;;;4953570;28;20521;-71
2022/01/17 02:11:53;;;;;;;19.13;9.40;;;3.50;99.90;;;;;;4968922;28;20491;-70
2022/01/17 02:14:20;;;;;;;16.40;9.73;;;3.50;99.90;;;;;;4957310;28;20527;-70
2022/01/17 02:16:48;;;;;;;18.50;9.80;;;3.50;99.90;;;;;;4955285;28;20453;-71
2022/01/17 02:19:18;;;;;;;18.87;10.03;;;3.50;99.90;;;;;;4971300;28;20468;-70
2022/01/17 02:21:48;;;;;;;16.57;8.90;;;3.50;99.90;;;;;;4971865;28;20990;-71
2022/01/17 02:24:16;;;;;;;17.93;10.13;;;3.40;99.90;;;;;;4957604;28;20472;-70
2022/01/17 02:26:44;;;;;;;23.40;11.57;;;3.50;99.90;;;;;;4952508;28;20452;-70
2022/01/17 02:29:10;;;;;;;16.80;10.60;;;3.50;99.90;;;;;;4960106;28;20460;-71
2022/01/17 02:31:37;;;;;;;17.93;10.40;;;3.50;99.90;;;;;;4952302;28;20539;-71
2022/01/17 02:34:04;;;;;;;16.57;10.33;;;3.50;99.90;;;;;;4964423;28;20456;-70
2022/01/17 02:36:32;;;;;;;14.17;8.17;;;3.50;99.90;;;;;;4971584;28;20515;-70
2022/01/17 02:39:02;;;;;;;16.77;9.87;;;3.50;99.90;;;;;;4971368;28;20456;-70
2022/01/17 02:41:29;;;;;;;16.37;9.10;;;3.50;99.90;;;;;;4968177;28;20579;-70
2022/01/17 02:43:56;;;;;;;19.53;8.20;;;3.50;99.90;;;;;;4952348;28;20504;-71
2022/01/17 02:46:26;;;;;;;14.47;8.70;;;3.50;99.90;;;;;;4964711;28;20463;-70
2022/01/17 02:48:55;;;;;;;15.77;9.40;;;3.50;99.90;;;;;;4970096;28;20482;-70
2022/01/17 02:51:22;;;;;;;13.53;9.10;;;3.50;99.90;;;;;;4971244;28;20547;-70
2022/01/17 02:53:48;;;;;;;13.60;8.40;;;3.50;99.90;;;;;;4969907;28;20459;-70
2022/01/17 02:56:17;;;;;;;14.73;8.30;;;3.50;99.90;;;;;;4964116;28;20507;-70
2022/01/17 02:58:43;;;;;;;14.47;8.63;;;3.40;99.90;;;;;;4971286;28;20510;-70
2022/01/17 03:01:13;;;;;;;15.40;9.47;;;3.40;99.90;;;;;;4968552;28;20524;-70
2022/01/17 03:03:41;;;;;;;14.87;9.10;;;3.40;99.90;;;;;;4956125;28;20452;-71
2022/01/17 03:06:08;;;;;;;15.70;8.83;;;3.40;99.90;;;;;;4963450;28;20843;-70
2022/01/17 03:08:36;;;;;;;12.30;8.27;;;3.40;99.90;;;;;;4966633;28;20457;-70
2022/01/17 03:11:05;;;;;;;14.00;8.83;;;3.40;99.90;;;;;;4969887;28;20971;-70
2022/01/17 03:13:37;;;;;;;11.47;8.23;;;3.40;99.90;;;;;;4974804;28;20535;-70
2022/01/17 03:16:09;;;;;;;13.70;8.67;;;3.40;99.90;;;;;;4963665;28;20452;-71
2022/01/17 03:18:39;;;;;;;16.70;8.90;;;3.40;99.90;;;;;;4955223;28;21090;-71
2022/01/17 03:21:07;;;;;;;12.87;7.40;;;3.40;99.90;;;;;;4955556;28;20473;-70
2022/01/17 03:23:34;;;;;;;13.87;8.00;;;3.50;99.90;;;;;;4968455;28;20471;-70
2022/01/17 03:26:01;;;;;;;13.20;7.80;;;3.50;99.90;;;;;;4959728;28;20479;-70
2022/01/17 03:28:28;;;;;;;12.60;7.90;;;3.50;99.90;;;;;;4958676;28;20461;-70
2022/01/17 03:30:56;;;;;;;14.70;8.47;;;3.50;99.90;;;;;;4965528;28;20527;-70
2022/01/17 03:33:22;;;;;;;13.17;7.70;;;3.50;99.90;;;;;;4974000;28;20452;-70
2022/01/17 03:35:50;;;;;;;13.33;8.27;;;3.50;99.90;;;;;;4974435;28;20518;-70
2022/01/17 03:38:18;;;;;;;12.00;6.57;;;3.50;99.90;;;;;;4971837;28;20459;-70
2022/01/17 03:40:47;;;;;;;10.90;6.90;;;3.50;99.90;;;;;;4957680;28;20508;-70
2022/01/17 03:43:14;;;;;;;13.23;8.00;;;3.50;99.90;;;;;;4955080;28;20847;-70
2022/01/17 03:45:41;;;;;;;10.47;7.07;;;3.50;99.90;;;;;;4955298;28;20461;-70
2022/01/17 03:48:09;;;;;;;9.67;6.80;;;3.50;99.90;;;;;;4954940;28;20972;-70
2022/01/17 03:50:36;;;;;;;11.87;7.87;;;3.50;99.90;;;;;;4954676;28;20464;-70
2022/01/17 03:53:03;;;;;;;17.67;8.67;;;3.50;99.90;;;;;;4964262;28;21004;-70
2022/01/17 03:55:32;;;;;;;14.30;8.20;;;3.40;99.90;;;;;;4974268;28;20452;-70
2022/01/17 03:57:59;;;;;;;15.90;9.20;;;3.50;99.90;;;;;;4972767;28;20456;-70
2022/01/17 04:00:28;;;;;;;13.20;8.27;;;3.50;99.90;;;;;;4973639;28;20487;-70
2022/01/17 04:02:56;;;;;;;12.20;8.17;;;3.50;99.90;;;;;;4962991;28;20500;-70
2022/01/17 04:05:24;;;;;;;14.53;9.17;;;3.50;99.90;;;;;;4959561;28;20461;-70
2022/01/17 04:07:51;;;;;;;15.93;8.47;;;3.50;99.90;;;;;;4954729;28;20520;-70
2022/01/17 04:10:18;;;;;;;13.33;8.87;;;3.50;99.90;;;;;;4954252;28;20465;-70
2022/01/17 04:12:45;;;;;;;17.40;8.97;;;3.50;99.90;;;;;;4954649;28;20538;-70
2022/01/17 04:15:13;;;;;;;14.40;8.97;;;3.50;99.90;;;;;;4968089;28;21070;-71
2022/01/17 04:17:42;;;;;;;15.27;8.67;;;3.50;99.90;;;;;;4973367;28;20455;-71
2022/01/17 04:20:13;;;;;;;19.97;9.83;;;3.50;99.90;;;;;;4963809;28;20465;-71
2022/01/17 04:22:50;;;;;;;15.73;9.40;;;3.50;99.90;;;;;;4954455;28;20486;-71
2022/01/17 04:25:17;;;;;;;15.53;9.20;;;3.50;99.90;;;;;;4954225;28;20488;-70
2022/01/17 04:27:43;;;;;;;18.97;10.00;;;3.50;99.90;;;;;;4953830;28;21249;-71
2022/01/17 04:30:13;;;;;;;21.73;10.97;;;3.50;99.90;;;;;;4953871;28;20961;-70
2022/01/17 04:32:40;;;;;;;15.80;9.67;;;3.50;99.90;;;;;;4963134;28;20492;-70
2022/01/17 04:35:07;;;;;;;23.30;9.30;;;3.50;99.90;;;;;;4973360;28;20536;-70
2022/01/17 04:37:34;;;;;;;20.53;9.67;;;3.50;99.90;;;;;;4972637;28;20456;-70
2022/01/17 04:40:02;;;;;;;21.40;10.30;;;3.50;99.90;;;;;;4971535;28;20452;-70
2022/01/17 04:42:29;;;;;;;22.20;11.83;;;3.50;99.90;;;;;;4965648;28;20500;-70
2022/01/17 04:45:08;;;;;;;24.90;11.50;;;3.50;99.90;;;;;;4946076;28;20461;-70
2022/01/17 04:47:36;;;;;;;20.73;11.57;;;3.60;99.90;;;;;;4953426;28;20453;-70
2022/01/17 04:50:04;;;;;;;27.23;12.07;;;3.60;99.90;;;;;;4953868;28;20492;-70
2022/01/17 04:52:30;;;;;;;20.03;11.47;;;3.60;99.90;;;;;;4953574;28;20493;-70
2022/01/17 04:55:01;;;;;;;25.37;12.83;;;3.60;99.90;;;;;;4954560;28;20449;-70
2022/01/17 04:57:30;;;;;;;21.73;12.37;;;3.60;99.90;;;;;;4953495;28;20953;-70
2022/01/17 04:59:57;;;;;;;26.10;13.43;;;3.60;99.90;;;;;;4972338;28;20460;-70
2022/01/17 05:02:24;;;;;;;26.60;13.00;;;3.60;99.90;;;;;;4962270;28;20499;-70
2022/01/17 05:04:51;;;;;;;26.93;12.30;;;3.60;99.90;;;;;;4958724;28;20957;-70
2022/01/17 05:07:18;;;;;;;28.43;13.60;;;3.60;99.90;;;;;;4956464;28;20507;-71
2022/01/17 05:09:46;;;;;;;24.80;12.43;;;3.60;99.90;;;;;;4956062;28;20457;-70
2022/01/17 05:12:13;;;;;;;26.37;13.03;;;3.60;99.90;;;;;;4972451;28;20484;-70
2022/01/17 05:14:44;;;;;;;24.67;12.20;;;3.60;99.90;;;;;;4972455;28;20534;-70
2022/01/17 05:17:24;;;;;;;26.90;13.13;;;3.60;99.90;;;;;;4972617;28;20874;-71
2022/01/17 05:19:54;;;;;;;28.70;13.73;;;3.60;99.90;;;;;;4970430;28;20559;-71
2022/01/17 05:22:21;;;;;;;27.73;13.87;;;3.60;99.90;;;;;;4965826;28;20468;-71
2022/01/17 05:24:48;;;;;;;27.80;14.17;;;3.60;99.90;;;;;;4959551;28;20619;-71
2022/01/17 05:27:15;;;;;;;28.77;14.20;;;3.60;99.90;;;;;;4953348;28;20457;-70
2022/01/17 05:29:43;;;;;;;27.10;13.43;;;3.60;99.90;;;;;;4953719;28;21016;-71
2022/01/17 05:32:10;;;;;;;34.03;15.40;;;3.60;99.90;;;;;;4971164;28;20484;-71
2022/01/17 05:34:40;;;;;;;26.07;13.63;;;3.60;99.90;;;;;;4972158;28;20986;-71
2022/01/17 05:37:07;;;;;;;27.73;13.20;;;3.60;99.90;;;;;;4968314;28;20460;-70
2022/01/17 05:39:34;;;;;;;32.73;14.20;;;3.70;99.90;;;;;;4953739;28;20548;-70
2022/01/17 05:42:01;;;;;;;25.87;13.40;;;3.70;99.90;;;;;;4988836;22;20562;-75
2022/01/17 05:44:28;;;;;;;26.90;13.33;;;3.70;99.90;;;;;;4973105;28;20490;-76
2022/01/17 05:46:55;;;;;;;26.73;14.13;;;3.70;99.90;;;;;;4973095;28;20452;-75
2022/01/17 05:49:22;;;;;;;27.53;13.13;;;3.70;99.90;;;;;;4979009;28;20451;-76
2022/01/17 05:51:49;;;;;;;28.20;15.10;;;3.80;99.90;;;;;;4974948;28;20468;-75
2022/01/17 05:54:16;;;;;;;30.60;13.53;;;3.80;99.90;;;;;;4953883;28;20465;-75
2022/01/17 05:56:43;;;;;;;29.23;14.50;;;3.80;99.90;;;;;;4954058;28;20548;-76
2022/01/17 05:59:10;;;;;;;28.23;15.03;;;3.80;99.90;;;;;;4954025;28;20465;-75
2022/01/17 06:01:39;;;;;;;30.13;14.60;;;3.90;99.90;;;;;;4952741;28;20532;-76
2022/01/17 06:04:07;;;;;;;23.70;13.40;;;3.90;99.90;;;;;;4953767;28;20548;-76
2022/01/17 06:06:33;;;;;;;35.87;15.33;;;3.90;99.90;;;;;;4953314;28;20870;-76
2022/01/17 06:09:00;;;;;;;28.27;13.47;;;3.90;99.90;;;;;;4953205;28;20452;-75
2022/01/17 06:11:27;;;;;;;33.63;15.80;;;3.90;99.90;;;;;;4954507;28;20468;-75
2022/01/17 06:13:53;;;;;;;33.73;16.20;;;4.00;99.90;;;;;;4953950;28;20595;-76
2022/01/17 06:16:20;;;;;;;30.50;14.93;;;4.00;99.90;;;;;;4968263;28;20448;-76
2022/01/17 06:18:47;;;;;;;29.73;14.53;;;4.00;99.90;;;;;;4970290;28;20544;-75
2022/01/17 06:21:15;;;;;;;25.60;13.90;;;4.00;99.90;;;;;;4972699;28;20507;-75
2022/01/17 06:23:41;;;;;;;28.97;13.87;;;4.00;99.90;;;;;;4972361;28;20475;-76
2022/01/17 06:26:08;;;;;;;28.13;15.00;;;4.00;99.90;;;;;;4953501;28;20511;-76
2022/01/17 06:28:35;;;;;;;27.23;13.53;;;4.00;99.90;;;;;;4957495;28;20539;-76
2022/01/17 06:31:01;;;;;;;33.07;14.80;;;4.00;99.90;;;;;;4953698;28;20515;-75
2022/01/17 06:33:28;;;;;;;28.63;14.90;;;4.10;99.90;;;;;;4965691;28;20491;-76
2022/01/17 06:35:55;;;;;;;34.67;13.77;;;4.10;99.90;;;;;;4975994;28;20460;-76
2022/01/17 06:38:23;;;;;;;34.30;15.20;;;4.10;99.90;;;;;;4975892;28;20486;-75
2022/01/17 06:40:50;;;;;;;31.60;14.97;;;4.10;99.90;;;;;;4966701;28;20515;-77
2022/01/17 06:43:16;;;;;;;26.90;14.57;;;4.10;99.90;;;;;;4964966;28;20555;-75
2022/01/17 06:45:45;;;;;;;31.00;14.27;;;4.10;99.90;;;;;;4977865;28;20493;-77
2022/01/17 06:48:12;;;;;;;29.17;14.23;;;4.10;99.90;;;;;;4963446;28;20516;-77
2022/01/17 06:50:39;;;;;;;25.63;12.40;;;4.20;99.90;;;;;;4959241;28;20453;-76
2022/01/17 06:53:06;;;;;;;24.20;11.57;;;4.10;99.90;;;;;;4959369;28;20524;-77
2022/01/17 06:55:34;;;;;;;27.87;13.30;;;4.20;99.90;;;;;;4959358;28;20456;-77
2022/01/17 06:58:01;;;;;;;29.37;13.40;;;4.20;99.90;;;;;;4967168;28;20453;-77
2022/01/17 07:00:27;;;;;;;42.00;14.17;;;4.20;99.90;;;;;;4958338;28;20464;-76
2022/01/17 07:02:54;;;;;;;27.17;13.47;;;4.20;99.90;;;;;;4957765;28;20523;-75
2022/01/17 07:05:21;;;;;;;23.17;11.60;;;4.20;99.90;;;;;;4957804;28;20456;-75
2022/01/17 07:07:47;;;;;;;20.50;12.27;;;4.20;99.90;;;;;;4958713;28;20551;-76
2022/01/17 07:10:15;;;;;;;22.70;12.30;;;4.20;99.90;;;;;;4958393;28;20460;-76
2022/01/17 07:12:43;;;;;;;23.87;12.00;;;4.30;99.90;;;;;;4972661;28;20871;-76
2022/01/17 07:15:10;;;;;;;28.80;12.10;;;4.30;99.90;;;;;;4970616;28;20908;-74
2022/01/17 07:17:36;;;;;;;24.00;12.20;;;4.30;99.90;;;;;;4962208;28;20464;-74
2022/01/17 07:20:04;;;;;;;25.40;11.97;;;4.30;99.90;;;;;;4961891;28;20526;-73
2022/01/17 07:22:32;;;;;;;19.90;10.70;;;4.30;99.90;;;;;;4958476;28;20504;-72
2022/01/17 07:25:00;;;;;;;21.70;11.90;;;4.40;99.90;;;;;;4962530;28;20547;-75
2022/01/17 07:27:26;;;;;;;26.43;10.50;;;4.40;99.90;;;;;;4968272;28;20495;-74
2022/01/17 07:29:54;;;;;;;20.23;10.50;;;4.40;99.90;;;;;;4955340;28;20552;-74
2022/01/17 07:32:21;;;;;;;25.67;11.77;;;4.40;99.90;;;;;;4957000;28;20477;-75
2022/01/17 07:34:48;;;;;;;22.20;10.33;;;4.40;99.90;;;;;;4959069;28;20540;-73
2022/01/17 07:37:15;;;;;;;19.53;11.30;;;4.40;99.90;;;;;;4967750;28;20519;-74
2022/01/17 07:39:43;;;;;;;19.33;10.70;;;4.40;99.90;;;;;;4955419;28;20816;-75
2022/01/17 07:42:10;;;;;;;22.37;11.10;;;4.40;99.90;;;;;;4969258;28;21060;-74
2022/01/17 07:44:39;;;;;;;18.27;10.67;;;4.40;99.90;;;;;;4956189;28;20461;-74
2022/01/17 07:47:15;;;;;;;22.33;11.40;;;4.40;99.90;;;;;;4955528;28;20854;-73
2022/01/17 07:49:44;;;;;;;20.63;10.30;;;4.40;99.90;;;;;;4968218;28;20464;-73
2022/01/17 07:52:12;;;;;;;23.77;10.90;;;4.30;99.90;;;;;;4968598;28;20513;-75
2022/01/17 07:54:43;;;;;;;21.40;11.40;;;4.30;99.90;;;;;;4963090;28;20479;-74
2022/01/17 07:57:11;;;;;;;17.70;10.20;;;4.40;99.90;;;;;;4973714;28;20887;-73
2022/01/17 07:59:37;;;;;;;21.97;10.53;;;4.40;99.90;;;;;;4972131;28;20492;-75
2022/01/17 08:02:05;;;;;;;24.80;10.20;;;4.40;99.90;;;;;;4952182;28;20477;-74
2022/01/17 08:04:33;;;;;;;23.60;11.20;;;4.50;99.90;;;;;;4956046;28;20536;-72
2022/01/17 08:07:00;;;;;;;24.90;10.90;;;4.50;99.90;;;;;;4956247;28;20460;-71
2022/01/17 08:09:30;;;;;;;21.47;10.00;;;4.50;99.90;;;;;;4955436;28;20461;-71
2022/01/17 08:11:57;;;;;;;21.20;9.53;;;4.50;99.90;;;;;;4959956;28;20568;-73
2022/01/17 08:14:24;;;;;;;26.30;11.37;;;4.50;99.90;;;;;;4968831;28;20488;-73
2022/01/17 08:16:51;;;;;;;16.80;9.30;;;4.50;99.90;;;;;;4958512;28;20472;-74
2022/01/17 08:19:18;;;;;;;19.57;10.00;;;4.60;99.90;;;;;;4967349;28;20507;-71
2022/01/17 08:21:47;;;;;;;20.30;9.80;;;4.60;99.90;;;;;;4949661;28;20967;-74
2022/01/17 08:24:14;;;;;;;17.70;10.17;;;4.60;99.90;;;;;;4951128;28;21001;-70
2022/01/17 08:26:42;;;;;;;16.13;8.83;;;4.60;99.90;;;;;;4952985;28;21012;-71
2022/01/17 08:29:09;;;;;;;19.93;10.20;;;4.60;99.90;;;;;;4955741;28;20547;-72
2022/01/17 08:31:36;;;;;;;22.67;9.47;;;4.60;99.90;;;;;;4955186;28;20469;-72
2022/01/17 08:34:03;;;;;;;20.53;9.60;;;4.60;99.90;;;;;;4955809;28;21004;-71
2022/01/17 08:36:29;;;;;;;22.37;9.50;;;4.60;99.90;;;;;;4954481;28;20843;-73
2022/01/17 08:38:57;;;;;;;22.30;9.37;;;4.70;99.90;;;;;;4964393;28;20483;-73
2022/01/17 08:41:24;;;;;;;19.40;9.03;;;4.70;99.90;;;;;;4954723;28;20555;-73
2022/01/17 08:43:51;;;;;;;24.27;10.57;;;4.70;99.90;;;;;;4955525;28;20460;-73
2022/01/17 08:46:19;;;;;;;23.60;9.83;;;4.70;99.90;;;;;;4962789;28;20460;-73
2022/01/17 08:48:46;;;;;;;23.33;8.93;;;4.70;99.90;;;;;;4955533;28;20516;-73
2022/01/17 08:51:13;;;;;;;20.52;9.70;;;4.80;99.90;;;;;;4954306;28;21081;-74
2022/01/17 08:53:40;;;;;;;19.47;9.03;;;4.70;99.90;;;;;;4955553;28;20288;-75
2022/01/17 08:56:09;;;;;;;25.57;9.73;;;4.80;99.90;;;;;;4953550;28;20508;-73
2022/01/17 08:58:35;;;;;;;19.20;8.90;;;4.80;99.90;;;;;;4960740;28;20554;-74
2022/01/17 09:01:02;;;;;;;23.07;9.23;;;4.80;99.90;;;;;;4963069;28;20490;-74
2022/01/17 09:03:29;;;;;;;14.73;8.37;;;4.80;99.90;;;;;;4963906;28;20937;-74
2022/01/17 09:05:56;;;;;;;15.77;9.10;;;4.90;99.90;;;;;;4962981;28;20981;-73
2022/01/17 09:08:24;;;;;;;24.50;9.30;;;4.90;99.90;;;;;;4953269;28;20493;-73
2022/01/17 09:10:54;;;;;;;18.00;9.80;;;5.00;99.90;;;;;;4968244;28;20956;-73
2022/01/17 09:13:23;;;;;;;16.70;9.00;;;5.00;99.90;;;;;;4948621;28;20869;-74
2022/01/17 09:15:50;;;;;;;17.97;8.17;;;5.00;99.90;;;;;;4952333;28;20453;-74
2022/01/17 09:18:19;;;;;;;15.93;9.27;;;5.00;99.90;;;;;;4954045;28;20470;-74
2022/01/17 09:20:45;;;;;;;20.40;9.80;;;5.10;99.90;;;;;;4961469;28;20952;-74
2022/01/17 09:23:12;;;;;;;22.00;9.20;;;5.10;99.90;;;;;;4969494;28;20539;-73
2022/01/17 09:25:39;;;;;;;20.43;8.60;;;5.20;99.90;;;;;;4963877;28;20516;-74
2022/01/17 09:28:06;;;;;;;16.93;9.30;;;5.20;99.90;;;;;;4955554;28;20456;-74
2022/01/17 09:30:34;;;;;;;17.43;9.50;;;5.20;99.90;;;;;;4963851;28;20452;-74
2022/01/17 09:33:03;;;;;;;19.30;9.30;;;5.20;99.90;;;;;;4971637;28;20483;-74
2022/01/17 09:35:30;;;;;;;17.20;9.07;;;5.20;99.90;;;;;;4953467;28;20461;-74
2022/01/17 09:37:57;;;;;;;23.37;9.17;;;5.20;99.90;;;;;;4973124;28;20563;-74
2022/01/17 09:40:23;;;;;;;22.00;10.00;;;5.20;99.90;;;;;;4959259;28;20465;-74
2022/01/17 09:42:50;;;;;;;26.00;9.63;;;5.20;99.90;;;;;;4953460;28;20489;-71
2022/01/17 09:45:19;;;;;;;22.77;10.23;;;5.20;99.90;;;;;;4955836;28;20452;-74
2022/01/17 09:47:48;;;;;;;19.43;9.80;;;5.20;99.90;;;;;;4956389;28;20460;-73
2022/01/17 09:50:20;;;;;;;18.70;9.87;;;5.20;99.90;;;;;;4965854;28;20508;-73
2022/01/17 09:52:48;;;;;;;23.63;9.00;;;5.20;99.90;;;;;;4952337;28;20485;-73
2022/01/17 09:55:21;;;;;;;21.53;9.47;;;5.20;99.90;;;;;;4970072;28;20489;-73
2022/01/17 09:57:51;;;;;;;20.30;10.00;;;5.20;99.90;;;;;;4955401;28;20469;-73
2022/01/17 10:00:20;;;;;;;17.27;8.40;;;5.20;99.90;;;;;;4954575;28;20457;-73
2022/01/17 10:02:49;;;;;;;20.10;9.67;;;5.20;99.90;;;;;;4957080;28;20992;-73
2022/01/17 10:05:16;;;;;;;17.63;8.73;;;5.20;99.90;;;;;;4951113;28;20460;-74
2022/01/17 10:07:54;;;;;;;22.10;9.07;;;5.20;99.90;;;;;;4953065;28;21187;-73
2022/01/17 10:10:39;;;;;;;20.70;9.40;;;5.20;99.90;;;;;;4952931;28;20475;-74
2022/01/17 10:13:08;;;;;;;19.07;9.13;;;5.30;99.90;;;;;;4968062;28;20516;-73
2022/01/17 10:15:45;;;;;;;18.63;9.13;;;5.30;99.90;;;;;;4954831;28;20457;-74
2022/01/17 10:18:29;;;;;;;20.90;9.90;;;5.30;99.90;;;;;;4934479;29;20853;-74
2022/01/17 10:21:01;;;;;;;21.50;9.50;;;5.30;99.90;;;;;;4952040;28;20453;-74
2022/01/17 10:26:29;;;;;;;15.70;8.87;;;5.40;99.90;;;;;;4952718;29;20440;-74
2022/01/17 10:29:13;;;;;;;21.70;10.43;;;5.60;99.90;;;;;;4953859;28;20961;-73
2022/01/17 10:37:12;;;;;;;17.10;8.50;;;6.60;99.90;;;;;;4947760;29;20463;-71
2022/01/17 10:39:53;;;;;;;16.20;8.75;;;7.10;99.90;;;;;;4949126;29;20526;-74
2022/01/17 10:42:28;;;;;;;16.40;8.77;;;7.10;99.90;;;;;;4953113;28;20233;-74
2022/01/17 10:45:00;;;;;;;21.10;9.30;;;7.10;99.90;;;;;;4953053;28;20455;-74
2022/01/17 10:47:29;;;;;;;16.83;8.80;;;7.00;99.90;;;;;;4953202;28;20452;-74
2022/01/17 10:49:59;;;;;;;17.10;8.50;;;6.80;99.90;;;;;;4954093;28;20996;-74
2022/01/17 10:52:32;;;;;;;17.80;9.50;;;6.70;99.90;;;;;;4962022;28;20828;-74
2022/01/17 10:55:04;;;;;;;19.33;9.03;;;6.60;99.90;;;;;;4953209;28;20504;-74
2022/01/17 10:57:35;;;;;;;21.73;9.27;;;6.60;99.90;;;;;;4959451;28;20485;-74
2022/01/17 11:00:06;;;;;;;17.23;8.40;;;6.50;99.90;;;;;;4954603;28;20611;-74
2022/01/17 11:02:33;;;;;;;16.60;9.60;;;6.60;99.90;;;;;;4952972;28;20985;-74
2022/01/17 11:05:04;;;;;;;15.70;8.83;;;6.80;99.90;;;;;;4951326;28;20889;-74
2022/01/17 11:07:30;;;;;;;21.40;9.57;;;6.90;99.90;;;;;;4952091;28;20548;-74
2022/01/17 11:10:00;;;;;;;15.83;8.80;;;7.00;99.90;;;;;;4950947;28;20464;-74
2022/01/17 11:12:29;;;;;;;18.80;9.03;;;6.90;99.90;;;;;;4949538;28;20832;-74
2022/01/17 11:14:57;;;;;;;13.93;8.53;;;6.70;99.90;;;;;;4948894;28;20550;-74
2022/01/17 11:17:32;;;;;;;21.20;8.90;;;6.70;99.90;;;;;;4947484;28;20540;-73
2022/01/17 11:20:07;;;;;;;15.93;7.83;;;6.60;99.90;;;;;;4947668;28;20448;-74
2022/01/17 11:22:36;;;;;;;18.63;9.37;;;6.60;99.90;;;;;;4956411;28;20480;-73
2022/01/17 11:25:04;;;;;;;15.57;8.43;;;6.50;99.90;;;;;;4975507;28;20499;-71
2022/01/17 11:27:32;;;;;;;15.87;8.03;;;6.50;99.90;;;;;;4962770;28;20217;-72
2022/01/17 11:29:59;;;;;;;21.43;9.80;;;6.60;99.90;;;;;;4963455;28;20478;-73
2022/01/17 11:32:26;;;;;;;18.33;9.33;;;6.60;99.90;;;;;;4956400;28;20480;-74
2022/01/17 11:34:53;;;;;;;18.30;8.87;;;6.70;99.90;;;;;;4954646;28;20501;-74
2022/01/17 11:37:22;;;;;;;20.47;9.30;;;7.00;99.90;;;;;;4952608;28;20528;-74
2022/01/17 11:39:52;;;;;;;26.33;8.67;;;7.30;99.90;;;;;;4955941;28;20996;-74
2022/01/17 11:42:34;;;;;;;18.90;9.30;;;7.50;99.90;;;;;;4955351;28;20528;-76
2022/01/17 11:45:01;;;;;;;13.70;9.03;;;7.70;99.90;;;;;;4955132;28;20455;-73
2022/01/17 11:47:48;;;;;;;19.00;9.37;;;8.10;99.90;;;;;;4984940;22;20510;-68
2022/01/17 11:50:44;;;;;;;17.35;8.90;;;8.40;99.90;;;;;;4976222;28;20481;-68
2022/01/17 11:53:47;;;;;;;12.07;8.80;;;8.50;99.90;;;;;;4983177;28;20204;-68
2022/01/17 11:56:36;;;;;;;15.07;9.00;;;9.10;99.90;;;;;;4995894;28;20502;-68
2022/01/17 11:59:31;;;;;;;15.33;8.20;;;9.50;99.90;;;;;;4995118;28;20475;-67
2022/01/17 12:02:16;;;;;;;19.93;10.13;;;9.80;99.90;;;;;;4993808;28;20473;-68
2022/01/17 12:05:03;;;;;;;16.23;8.60;;;9.90;99.90;;;;;;4974266;28;20506;-68
2022/01/17 12:07:37;;;;;;;16.03;9.27;;;9.70;99.90;;;;;;4992534;28;20467;-68
2022/01/17 12:10:08;;;;;;;18.73;9.90;;;9.50;99.90;;;;;;4973911;28;20535;-68
2022/01/17 12:12:37;;;;;;;17.93;9.57;;;9.40;99.90;;;;;;4993202;28;20535;-68
2022/01/17 12:15:11;;;;;;;16.53;9.40;;;9.40;99.90;;;;;;4988834;28;20494;-68
2022/01/17 12:17:38;;;;;;;13.10;9.27;;;9.30;99.90;;;;;;4991542;28;20474;-68
2022/01/17 12:20:19;;;;;;;15.37;9.37;;;8.80;99.90;;;;;;4992041;28;20869;-68
2022/01/17 12:22:52;;;;;;;21.60;10.47;;;8.50;99.90;;;;;;4992083;28;20951;-68
2022/01/17 12:25:35;;;;;;;20.17;11.30;;;8.10;99.90;;;;;;4989867;28;20455;-68
2022/01/17 12:28:28;;;;;;;22.50;10.43;;;7.90;99.90;;;;;;4986352;28;20468;-68
2022/01/17 12:30:57;;;;;;;22.13;11.60;;;7.60;99.90;;;;;;4981629;28;20456;-68
2022/01/17 12:33:34;;;;;;;20.00;11.40;;;7.40;99.90;;;;;;4975361;28;20873;-68
2022/01/17 12:36:04;;;;;;;21.10;12.07;;;7.30;99.90;;;;;;4990077;28;20545;-68
2022/01/17 12:38:35;;;;;;;22.70;12.13;;;7.00;99.90;;;;;;4978426;28;20530;-68
2022/01/17 12:41:02;;;;;;;20.13;11.03;;;6.90;99.90;;;;;;4987973;28;20455;-68
2022/01/17 12:43:32;;;;;;;22.67;12.00;;;6.80;99.90;;;;;;4980391;28;20466;-68
2022/01/17 12:46:00;;;;;;;22.10;13.77;;;6.70;99.90;;;;;;4994137;28;20451;-68
2022/01/17 12:48:29;;;;;;;23.33;13.00;;;6.70;99.90;;;;;;4994450;28;20474;-68
2022/01/17 12:50:58;;;;;;;25.33;13.10;;;6.80;99.90;;;;;;4972369;28;20528;-68
2022/01/17 12:53:28;;;;;;;24.90;13.53;;;6.80;99.90;;;;;;4977748;28;20483;-68
2022/01/17 12:55:57;;;;;;;24.25;13.40;;;6.80;99.90;;;;;;4990756;28;20456;-68
2022/01/17 12:58:26;;;;;;;29.20;14.47;;;6.80;99.90;;;;;;4990667;28;20220;-68
2022/01/17 13:00:55;;;;;;;18.60;11.90;;;6.90;99.90;;;;;;4985895;28;20452;-67
2022/01/17 13:03:24;;;;;;;20.70;12.60;;;7.00;99.90;;;;;;4978567;28;20448;-68
2022/01/17 13:05:51;;;;;;;23.33;13.30;;;6.90;99.90;;;;;;4981554;28;20494;-67